sensor_id;sensor_type;location;lat;lon;timestamp;P1;P4;P2;P0;N10;N4;N25;N1;N05;TS
44530;SPS30;30240;47.418;0.700;2023-10-13T00:00:58;6.560175;;6.3345118;;;;;;;
44530;SPS30;30240;47.418;0.700;2023-10-13T00:03:23;6.560175;;6.3345118;;;;;;;
44530;SPS30;30240;47.418;0.700;2023-10-13T00:05:49;6.265987;;6.0854645;;;;;;;
44530;SPS30;30240;47.418;0.700;2023-10-13T00:08:13;7.2503386;;6.943381;;;;;;;
44530;SPS30;30240;47.418;0.700;2023-10-13T00:10:38;6.117904;;5.919762;;;;;;;
44530;SPS30;30240;47.418;0.700;2023-10-13T00:13:03;6.6301203;;6.459696;;;;;;;
44530;SPS30;30240;47.418;0.700;2023-10-13T00:15:28;6.6301203;;6.459696;;;;;;;
44530;SPS30;30240;47.418;0.700;2023-10-13T00:17:53;6.049242;;5.9046454;;;;;;;
44530;SPS30;30240;47.418;0.700;2023-10-13T00:20:18;6.18758;;5.968744;;;;;;;
44530;SPS30;30240;47.418;0.700;2023-10-13T00:22:44;6.2210493;;6.0109034;;;;;;;
44530;SPS30;30240;47.418;0.700;2023-10-13T00:25:08;6.5528364;;6.309131;;;;;;;
44530;SPS30;30240;47.418;0.700;2023-10-13T00:27:33;6.5528364;;6.309131;;;;;;;
44530;SPS30;30240;47.418;0.700;2023-10-13T00:29:59;5.4580255;;5.2796106;;;;;;;
44530;SPS30;30240;47.418;0.700;2023-10-13T00:32:23;6.0914874;;5.847879;;;;;;;
44530;SPS30;30240;47.418;0.700;2023-10-13T00:34:48;5.60986;;5.519236;;;;;;;
44530;SPS30;30240;47.418;0.700;2023-10-13T00:37:14;6.2073708;;6.0143023;;;;;;;
44530;SPS30;30240;47.418;0.700;2023-10-13T00:39:38;6.2073708;;6.0143023;;;;;;;
44530;SPS30;30240;47.418;0.700;2023-10-13T00:42:03;6.4205403;;6.221448;;;;;;;
44530;SPS30;30240;47.418;0.700;2023-10-13T00:44:29;5.534533;;5.3913984;;;;;;;
44530;SPS30;30240;47.418;0.700;2023-10-13T00:46:53;6.105642;;5.9781384;;;;;;;
44530;SPS30;30240;47.418;0.700;2023-10-13T00:49:18;5.26665;;5.1724696;;;;;;;
44530;SPS30;30240;47.418;0.700;2023-10-13T00:51:43;5.26665;;5.1724696;;;;;;;
44530;SPS30;30240;47.418;0.700;2023-10-13T00:54:08;6.1105447;;5.9236517;;;;;;;
44530;SPS30;30240;47.418;0.700;2023-10-13T00:56:33;6.0225506;;5.793394;;;;;;;
44530;SPS30;30240;47.418;0.700;2023-10-13T00:58:58;6.4424763;;6.2893057;;;;;;;
44530;SPS30;30240;47.418;0.700;2023-10-13T01:01:23;6.802342;;6.644152;;;;;;;
44530;SPS30;30240;47.418;0.700;2023-10-13T01:03:49;6.802342;;6.644152;;;;;;;
44530;SPS30;30240;47.418;0.700;2023-10-13T01:06:14;6.632131;;6.51389;;;;;;;
44530;SPS30;30240;47.418;0.700;2023-10-13T01:08:38;7.1921167;;7.0807853;;;;;;;
44530;SPS30;30240;47.418;0.700;2023-10-13T01:11:03;6.1298413;;5.963122;;;;;;;
44530;SPS30;30240;47.418;0.700;2023-10-13T01:13:28;7.075365;;6.9503846;;;;;;;
44530;SPS30;30240;47.418;0.700;2023-10-13T01:15:53;7.075365;;6.9503846;;;;;;;
44530;SPS30;30240;47.418;0.700;2023-10-13T01:18:18;6.8457136;;6.7449417;;;;;;;
44530;SPS30;30240;47.418;0.700;2023-10-13T01:20:43;6.891949;;6.75051;;;;;;;
44530;SPS30;30240;47.418;0.700;2023-10-13T01:23:10;6.1007853;;6.0358944;;;;;;;
44530;SPS30;30240;47.418;0.700;2023-10-13T01:25:33;6.824198;;6.7680273;;;;;;;
44530;SPS30;30240;47.418;0.700;2023-10-13T01:27:58;6.824198;;6.7680273;;;;;;;
44530;SPS30;30240;47.418;0.700;2023-10-13T01:30:23;6.9197083;;6.773612;;;;;;;
44530;SPS30;30240;47.418;0.700;2023-10-13T01:32:48;6.4498386;;6.376217;;;;;;;
44530;SPS30;30240;47.418;0.700;2023-10-13T01:35:13;7.0543075;;6.95921;;;;;;;
44530;SPS30;30240;47.418;0.700;2023-10-13T01:37:38;6.646326;;6.604643;;;;;;;
44530;SPS30;30240;47.418;0.700;2023-10-13T01:40:04;6.9966927;;6.97338;;;;;;;
44530;SPS30;30240;47.418;0.700;2023-10-13T01:42:28;6.9966927;;6.97338;;;;;;;
44530;SPS30;30240;47.418;0.700;2023-10-13T01:44:53;6.993957;;6.943708;;;;;;;
44530;SPS30;30240;47.418;0.700;2023-10-13T01:47:18;6.392656;;6.366791;;;;;;;
44530;SPS30;30240;47.418;0.700;2023-10-13T01:49:44;7.381024;;7.3193784;;;;;;;
44530;SPS30;30240;47.418;0.700;2023-10-13T01:52:08;7.430223;;7.388414;;;;;;;
44530;SPS30;30240;47.418;0.700;2023-10-13T01:54:33;7.430223;;7.388414;;;;;;;
44530;SPS30;30240;47.418;0.700;2023-10-13T01:56:58;6.8807197;;6.8189096;;;;;;;
44530;SPS30;30240;47.418;0.700;2023-10-13T01:59:23;7.487489;;7.471874;;;;;;;
44530;SPS30;30240;47.418;0.700;2023-10-13T02:01:48;8.021947;;7.9918833;;;;;;;
44530;SPS30;30240;47.418;0.700;2023-10-13T02:04:13;8.487556;;8.386576;;;;;;;
44530;SPS30;30240;47.418;0.700;2023-10-13T02:06:38;8.487556;;8.386576;;;;;;;
44530;SPS30;30240;47.418;0.700;2023-10-13T02:09:05;7.7971416;;7.753726;;;;;;;
44530;SPS30;30240;47.418;0.700;2023-10-13T02:11:28;7.3610735;;7.3342357;;;;;;;
44530;SPS30;30240;47.418;0.700;2023-10-13T02:13:53;8.122029;;8.0526085;;;;;;;
44530;SPS30;30240;47.418;0.700;2023-10-13T02:16:18;7.681112;;7.5858803;;;;;;;
44530;SPS30;30240;47.418;0.700;2023-10-13T02:18:43;7.681112;;7.5858803;;;;;;;
44530;SPS30;30240;47.418;0.700;2023-10-13T02:21:08;7.758353;;7.6931286;;;;;;;
44530;SPS30;30240;47.418;0.700;2023-10-13T02:23:33;8.203582;;8.161225;;;;;;;
44530;SPS30;30240;47.418;0.700;2023-10-13T02:25:59;8.673463;;8.627706;;;;;;;
44530;SPS30;30240;47.418;0.700;2023-10-13T02:28:23;8.40197;;8.371255;;;;;;;
44530;SPS30;30240;47.418;0.700;2023-10-13T02:30:48;8.40197;;8.371255;;;;;;;
44530;SPS30;30240;47.418;0.700;2023-10-13T02:33:14;8.217691;;8.162462;;;;;;;
44530;SPS30;30240;47.418;0.700;2023-10-13T02:35:39;8.138186;;8.0900135;;;;;;;
44530;SPS30;30240;47.418;0.700;2023-10-13T02:38:03;8.887281;;8.832739;;;;;;;
44530;SPS30;30240;47.418;0.700;2023-10-13T02:40:28;9.062659;;9.011731;;;;;;;
44530;SPS30;30240;47.418;0.700;2023-10-13T02:42:53;9.062659;;9.011731;;;;;;;
44530;SPS30;30240;47.418;0.700;2023-10-13T02:45:18;8.842962;;8.786945;;;;;;;
44530;SPS30;30240;47.418;0.700;2023-10-13T02:47:43;8.794816;;8.710786;;;;;;;
44530;SPS30;30240;47.418;0.700;2023-10-13T02:50:09;8.795292;;8.768281;;;;;;;
44530;SPS30;30240;47.418;0.700;2023-10-13T02:52:33;8.499015;;8.4291525;;;;;;;
44530;SPS30;30240;47.418;0.700;2023-10-13T02:54:58;8.499015;;8.4291525;;;;;;;
44530;SPS30;30240;47.418;0.700;2023-10-13T02:57:23;8.067016;;8.004692;;;;;;;
44530;SPS30;30240;47.418;0.700;2023-10-13T02:59:48;9.009938;;8.97389;;;;;;;
44530;SPS30;30240;47.418;0.700;2023-10-13T03:02:13;8.6991825;;8.645654;;;;;;;
44530;SPS30;30240;47.418;0.700;2023-10-13T03:04:38;8.867124;;8.793571;;;;;;;
44530;SPS30;30240;47.418;0.700;2023-10-13T03:07:03;8.395236;;8.334405;;;;;;;
44530;SPS30;30240;47.418;0.700;2023-10-13T03:09:28;8.395236;;8.334405;;;;;;;
44530;SPS30;30240;47.418;0.700;2023-10-13T03:11:53;9.088891;;9.074819;;;;;;;
44530;SPS30;30240;47.418;0.700;2023-10-13T03:14:19;9.001443;;8.896244;;;;;;;
44530;SPS30;30240;47.418;0.700;2023-10-13T03:16:43;9.556107;;9.465493;;;;;;;
44530;SPS30;30240;47.418;0.700;2023-10-13T03:19:08;9.800369;;9.712153;;;;;;;
44530;SPS30;30240;47.418;0.700;2023-10-13T03:21:33;9.800369;;9.712153;;;;;;;
44530;SPS30;30240;47.418;0.700;2023-10-13T03:23:59;9.069832;;8.971984;;;;;;;
44530;SPS30;30240;47.418;0.700;2023-10-13T03:26:23;9.231686;;9.179943;;;;;;;
44530;SPS30;30240;47.418;0.700;2023-10-13T03:28:48;9.127568;;9.069577;;;;;;;
44530;SPS30;30240;47.418;0.700;2023-10-13T03:31:13;9.288147;;9.24906;;;;;;;
44530;SPS30;30240;47.418;0.700;2023-10-13T03:33:38;9.288147;;9.24906;;;;;;;
44530;SPS30;30240;47.418;0.700;2023-10-13T03:36:04;8.6267605;;8.558594;;;;;;;
44530;SPS30;30240;47.418;0.700;2023-10-13T03:38:28;8.264919;;8.153087;;;;;;;
44530;SPS30;30240;47.418;0.700;2023-10-13T03:40:53;9.034213;;8.947841;;;;;;;
44530;SPS30;30240;47.418;0.700;2023-10-13T03:43:18;8.807135;;8.67634;;;;;;;
44530;SPS30;30240;47.418;0.700;2023-10-13T03:45:44;8.807135;;8.67634;;;;;;;
44530;SPS30;30240;47.418;0.700;2023-10-13T03:48:09;8.634844;;8.529729;;;;;;;
44530;SPS30;30240;47.418;0.700;2023-10-13T03:50:33;9.486189;;9.442501;;;;;;;
44530;SPS30;30240;47.418;0.700;2023-10-13T03:52:58;9.558334;;9.457033;;;;;;;
44530;SPS30;30240;47.418;0.700;2023-10-13T03:55:23;8.36866;;8.23502;;;;;;;
44530;SPS30;30240;47.418;0.700;2023-10-13T03:57:48;8.36866;;8.23502;;;;;;;
44530;SPS30;30240;47.418;0.700;2023-10-13T04:00:14;9.656095;;9.37604;;;;;;;
44530;SPS30;30240;47.418;0.700;2023-10-13T04:02:38;9.127352;;9.015596;;;;;;;
44530;SPS30;30240;47.418;0.700;2023-10-13T04:05:04;9.2577095;;9.168589;;;;;;;
44530;SPS30;30240;47.418;0.700;2023-10-13T04:07:28;9.901234;;9.8363495;;;;;;;
44530;SPS30;30240;47.418;0.700;2023-10-13T04:09:53;9.901234;;9.8363495;;;;;;;
44530;SPS30;30240;47.418;0.700;2023-10-13T04:12:19;8.8445;;8.770064;;;;;;;
44530;SPS30;30240;47.418;0.700;2023-10-13T04:14:44;8.943634;;8.917386;;;;;;;
44530;SPS30;30240;47.418;0.700;2023-10-13T04:17:08;8.751413;;8.691879;;;;;;;
44530;SPS30;30240;47.418;0.700;2023-10-13T04:19:33;8.613457;;8.542426;;;;;;;
44530;SPS30;30240;47.418;0.700;2023-10-13T04:21:58;8.613457;;8.542426;;;;;;;
44530;SPS30;30240;47.418;0.700;2023-10-13T04:24:26;9.247489;;9.097226;;;;;;;
44530;SPS30;30240;47.418;0.700;2023-10-13T04:26:49;8.904973;;8.854438;;;;;;;
44530;SPS30;30240;47.418;0.700;2023-10-13T04:29:13;9.171032;;9.129699;;;;;;;
44530;SPS30;30240;47.418;0.700;2023-10-13T04:31:38;8.598674;;8.572009;;;;;;;
44530;SPS30;30240;47.418;0.700;2023-10-13T04:34:03;8.598674;;8.572009;;;;;;;
44530;SPS30;30240;47.418;0.700;2023-10-13T04:36:28;8.635367;;8.556381;;;;;;;
44530;SPS30;30240;47.418;0.700;2023-10-13T04:38:54;9.250297;;9.148626;;;;;;;
44530;SPS30;30240;47.418;0.700;2023-10-13T04:41:18;8.217409;;8.17175;;;;;;;
44530;SPS30;30240;47.418;0.700;2023-10-13T04:43:43;9.359931;;9.255317;;;;;;;
44530;SPS30;30240;47.418;0.700;2023-10-13T04:46:08;8.382882;;8.371339;;;;;;;
44530;SPS30;30240;47.418;0.700;2023-10-13T04:48:33;8.382882;;8.371339;;;;;;;
44530;SPS30;30240;47.418;0.700;2023-10-13T04:50:59;8.07625;;8.046568;;;;;;;
44530;SPS30;30240;47.418;0.700;2023-10-13T04:53:23;8.685602;;8.611174;;;;;;;
44530;SPS30;30240;47.418;0.700;2023-10-13T04:55:48;8.146955;;8.112894;;;;;;;
44530;SPS30;30240;47.418;0.700;2023-10-13T04:58:13;8.8863325;;8.741419;;;;;;;
44530;SPS30;30240;47.418;0.700;2023-10-13T05:00:38;8.8863325;;8.741419;;;;;;;
44530;SPS30;30240;47.418;0.700;2023-10-13T05:03:03;8.731365;;8.65078;;;;;;;
44530;SPS30;30240;47.418;0.700;2023-10-13T05:05:28;7.980749;;7.8949285;;;;;;;
44530;SPS30;30240;47.418;0.700;2023-10-13T05:07:53;8.476632;;8.449087;;;;;;;
44530;SPS30;30240;47.418;0.700;2023-10-13T05:10:18;8.166095;;8.1334095;;;;;;;
44530;SPS30;30240;47.418;0.700;2023-10-13T05:12:43;8.166095;;8.1334095;;;;;;;
44530;SPS30;30240;47.418;0.700;2023-10-13T05:15:08;8.167745;;8.132548;;;;;;;
44530;SPS30;30240;47.418;0.700;2023-10-13T05:17:33;7.872803;;7.8010926;;;;;;;
44530;SPS30;30240;47.418;0.700;2023-10-13T05:19:58;7.808942;;7.738597;;;;;;;
44530;SPS30;30240;47.418;0.700;2023-10-13T05:22:23;8.12826;;8.089513;;;;;;;
44530;SPS30;30240;47.418;0.700;2023-10-13T05:24:48;8.12826;;8.089513;;;;;;;
44530;SPS30;30240;47.418;0.700;2023-10-13T05:27:13;8.486866;;8.478684;;;;;;;
44530;SPS30;30240;47.418;0.700;2023-10-13T05:29:39;8.420051;;8.352185;;;;;;;
44530;SPS30;30240;47.418;0.700;2023-10-13T05:32:04;8.174647;;8.138413;;;;;;;
44530;SPS30;30240;47.418;0.700;2023-10-13T05:34:28;7.377457;;7.2977467;;;;;;;
44530;SPS30;30240;47.418;0.700;2023-10-13T05:36:53;7.377457;;7.2977467;;;;;;;
44530;SPS30;30240;47.418;0.700;2023-10-13T05:39:18;7.221011;;7.1733193;;;;;;;
44530;SPS30;30240;47.418;0.700;2023-10-13T05:41:43;8.571728;;8.523066;;;;;;;
44530;SPS30;30240;47.418;0.700;2023-10-13T05:44:08;8.192761;;8.120245;;;;;;;
44530;SPS30;30240;47.418;0.700;2023-10-13T05:46:34;8.210248;;8.14505;;;;;;;
44530;SPS30;30240;47.418;0.700;2023-10-13T05:48:58;8.210248;;8.14505;;;;;;;
44530;SPS30;30240;47.418;0.700;2023-10-13T05:51:23;6.8337226;;6.8337226;;;;;;;
44530;SPS30;30240;47.418;0.700;2023-10-13T05:53:48;7.605781;;7.6052694;;;;;;;
44530;SPS30;30240;47.418;0.700;2023-10-13T05:56:13;7.3756537;;7.327687;;;;;;;
44530;SPS30;30240;47.418;0.700;2023-10-13T05:58:38;7.6632257;;7.662668;;;;;;;
44530;SPS30;30240;47.418;0.700;2023-10-13T06:01:03;7.6632257;;7.662668;;;;;;;
44530;SPS30;30240;47.418;0.700;2023-10-13T06:03:28;7.8056164;;7.7878594;;;;;;;
44530;SPS30;30240;47.418;0.700;2023-10-13T06:05:53;7.243914;;7.173031;;;;;;;
44530;SPS30;30240;47.418;0.700;2023-10-13T06:08:18;7.468229;;7.4088016;;;;;;;
44530;SPS30;30240;47.418;0.700;2023-10-13T06:10:45;8.098278;;8.053326;;;;;;;
44530;SPS30;30240;47.418;0.700;2023-10-13T06:13:08;8.421585;;8.355817;;;;;;;
44530;SPS30;30240;47.418;0.700;2023-10-13T06:15:35;8.421585;;8.355817;;;;;;;
44530;SPS30;30240;47.418;0.700;2023-10-13T06:17:58;8.042001;;7.9634566;;;;;;;
44530;SPS30;30240;47.418;0.700;2023-10-13T06:20:23;7.3665905;;7.348033;;;;;;;
44530;SPS30;30240;47.418;0.700;2023-10-13T06:22:48;7.25511;;7.229995;;;;;;;
44530;SPS30;30240;47.418;0.700;2023-10-13T06:25:13;7.9355435;;7.8584356;;;;;;;
44530;SPS30;30240;47.418;0.700;2023-10-13T06:27:39;7.9355435;;7.8584356;;;;;;;
44530;SPS30;30240;47.418;0.700;2023-10-13T06:30:04;7.3362527;;7.2906976;;;;;;;
44530;SPS30;30240;47.418;0.700;2023-10-13T06:32:28;8.0007305;;7.9650335;;;;;;;
44530;SPS30;30240;47.418;0.700;2023-10-13T06:34:53;8.054713;;8.0494375;;;;;;;
44530;SPS30;30240;47.418;0.700;2023-10-13T06:37:18;7.3613496;;7.361113;;;;;;;
44530;SPS30;30240;47.418;0.700;2023-10-13T06:39:43;7.3613496;;7.361113;;;;;;;
44530;SPS30;30240;47.418;0.700;2023-10-13T06:42:08;7.581648;;7.581648;;;;;;;
44530;SPS30;30240;47.418;0.700;2023-10-13T06:44:33;7.49718;;7.4493027;;;;;;;
44530;SPS30;30240;47.418;0.700;2023-10-13T06:46:58;8.401711;;8.358184;;;;;;;
44530;SPS30;30240;47.418;0.700;2023-10-13T06:49:23;8.210761;;8.129698;;;;;;;
44530;SPS30;30240;47.418;0.700;2023-10-13T06:51:48;8.210761;;8.129698;;;;;;;
44530;SPS30;30240;47.418;0.700;2023-10-13T06:54:13;7.648224;;7.635612;;;;;;;
44530;SPS30;30240;47.418;0.700;2023-10-13T06:56:39;7.9153657;;7.914531;;;;;;;
44530;SPS30;30240;47.418;0.700;2023-10-13T06:59:04;7.2278934;;7.1782;;;;;;;
44530;SPS30;30240;47.418;0.700;2023-10-13T07:01:29;8.033334;;7.9525366;;;;;;;
44530;SPS30;30240;47.418;0.700;2023-10-13T07:03:53;8.033334;;7.9525366;;;;;;;
44530;SPS30;30240;47.418;0.700;2023-10-13T07:06:19;7.136587;;7.0753307;;;;;;;
44530;SPS30;30240;47.418;0.700;2023-10-13T07:08:43;8.348139;;8.348139;;;;;;;
44530;SPS30;30240;47.418;0.700;2023-10-13T07:11:08;8.111976;;8.111976;;;;;;;
44530;SPS30;30240;47.418;0.700;2023-10-13T07:13:34;7.8899245;;7.8650813;;;;;;;
44530;SPS30;30240;47.418;0.700;2023-10-13T07:16:00;7.8899245;;7.8650813;;;;;;;
44530;SPS30;30240;47.418;0.700;2023-10-13T07:18:23;6.811826;;6.779295;;;;;;;
44530;SPS30;30240;47.418;0.700;2023-10-13T07:20:48;7.925792;;7.9205084;;;;;;;
44530;SPS30;30240;47.418;0.700;2023-10-13T07:23:13;7.891212;;7.8535533;;;;;;;
44530;SPS30;30240;47.418;0.700;2023-10-13T07:25:39;7.529897;;7.49537;;;;;;;
44530;SPS30;30240;47.418;0.700;2023-10-13T07:28:04;7.529897;;7.49537;;;;;;;
44530;SPS30;30240;47.418;0.700;2023-10-13T07:30:29;7.5084796;;7.4636993;;;;;;;
44530;SPS30;30240;47.418;0.700;2023-10-13T07:32:54;7.4832664;;7.436687;;;;;;;
44530;SPS30;30240;47.418;0.700;2023-10-13T07:35:19;7.895564;;7.831389;;;;;;;
44530;SPS30;30240;47.418;0.700;2023-10-13T07:37:44;9.118066;;9.047216;;;;;;;
44530;SPS30;30240;47.418;0.700;2023-10-13T07:40:09;9.118066;;9.047216;;;;;;;
44530;SPS30;30240;47.418;0.700;2023-10-13T07:42:33;8.461888;;8.387807;;;;;;;
44530;SPS30;30240;47.418;0.700;2023-10-13T07:44:58;8.338879;;8.291577;;;;;;;
44530;SPS30;30240;47.418;0.700;2023-10-13T07:47:24;8.091598;;8.091503;;;;;;;
44530;SPS30;30240;47.418;0.700;2023-10-13T07:49:49;7.8690743;;7.8520308;;;;;;;
44530;SPS30;30240;47.418;0.700;2023-10-13T07:52:13;8.211385;;8.15316;;;;;;;
44530;SPS30;30240;47.418;0.700;2023-10-13T07:54:40;8.211385;;8.15316;;;;;;;
44530;SPS30;30240;47.418;0.700;2023-10-13T07:57:04;8.025044;;7.9493794;;;;;;;
44530;SPS30;30240;47.418;0.700;2023-10-13T07:59:28;7.9819765;;7.878447;;;;;;;
44530;SPS30;30240;47.418;0.700;2023-10-13T08:01:54;8.445353;;8.3822975;;;;;;;
44530;SPS30;30240;47.418;0.700;2023-10-13T08:04:19;7.498962;;7.467952;;;;;;;
44530;SPS30;30240;47.418;0.700;2023-10-13T08:06:43;7.498962;;7.467952;;;;;;;
44530;SPS30;30240;47.418;0.700;2023-10-13T08:09:09;8.014614;;7.951571;;;;;;;
44530;SPS30;30240;47.418;0.700;2023-10-13T08:11:34;7.4279933;;7.3747406;;;;;;;
44530;SPS30;30240;47.418;0.700;2023-10-13T08:13:59;8.324451;;8.275635;;;;;;;
44530;SPS30;30240;47.418;0.700;2023-10-13T08:16:24;8.282854;;8.267657;;;;;;;
44530;SPS30;30240;47.418;0.700;2023-10-13T08:18:49;8.282854;;8.267657;;;;;;;
44530;SPS30;30240;47.418;0.700;2023-10-13T08:21:14;7.245939;;7.118307;;;;;;;
44530;SPS30;30240;47.418;0.700;2023-10-13T08:23:38;7.7187905;;7.718763;;;;;;;
44530;SPS30;30240;47.418;0.700;2023-10-13T08:26:08;7.4169345;;7.3975844;;;;;;;
44530;SPS30;30240;47.418;0.700;2023-10-13T08:28:29;8.213492;;8.17118;;;;;;;
44530;SPS30;30240;47.418;0.700;2023-10-13T08:30:53;8.213492;;8.17118;;;;;;;
44530;SPS30;30240;47.418;0.700;2023-10-13T08:33:18;8.177173;;8.094828;;;;;;;
44530;SPS30;30240;47.418;0.700;2023-10-13T08:35:43;7.337146;;7.2993903;;;;;;;
44530;SPS30;30240;47.418;0.700;2023-10-13T08:38:08;7.603019;;7.546951;;;;;;;
44530;SPS30;30240;47.418;0.700;2023-10-13T08:40:34;7.7391977;;7.64987;;;;;;;
44530;SPS30;30240;47.418;0.700;2023-10-13T08:42:59;7.7391977;;7.64987;;;;;;;
44530;SPS30;30240;47.418;0.700;2023-10-13T08:45:23;7.328206;;7.2775407;;;;;;;
44530;SPS30;30240;47.418;0.700;2023-10-13T08:47:49;8.6917925;;8.599938;;;;;;;
44530;SPS30;30240;47.418;0.700;2023-10-13T08:50:13;7.612652;;7.560084;;;;;;;
44530;SPS30;30240;47.418;0.700;2023-10-13T08:52:39;8.250229;;8.156989;;;;;;;
44530;SPS30;30240;47.418;0.700;2023-10-13T08:55:04;8.250229;;8.156989;;;;;;;
44530;SPS30;30240;47.418;0.700;2023-10-13T08:57:29;8.045073;;7.981287;;;;;;;
44530;SPS30;30240;47.418;0.700;2023-10-13T08:59:53;8.155505;;8.135228;;;;;;;
44530;SPS30;30240;47.418;0.700;2023-10-13T09:02:20;8.062707;;8.029342;;;;;;;
44530;SPS30;30240;47.418;0.700;2023-10-13T09:04:44;7.8475585;;7.8162684;;;;;;;
44530;SPS30;30240;47.418;0.700;2023-10-13T09:07:09;7.8475585;;7.8162684;;;;;;;
44530;SPS30;30240;47.418;0.700;2023-10-13T09:09:43;7.282299;;7.2572665;;;;;;;
44530;SPS30;30240;47.418;0.700;2023-10-13T09:09:46;7.282299;;7.2572665;;;;;;;
44530;SPS30;30240;47.418;0.700;2023-10-13T09:11:58;7.3959303;;7.312712;;;;;;;
44530;SPS30;30240;47.418;0.700;2023-10-13T09:14:24;7.5181537;;7.451585;;;;;;;
44530;SPS30;30240;47.418;0.700;2023-10-13T09:16:49;7.4843388;;7.39916;;;;;;;
44530;SPS30;30240;47.418;0.700;2023-10-13T09:19:13;7.485211;;7.4262586;;;;;;;
44530;SPS30;30240;47.418;0.700;2023-10-13T09:21:39;7.485211;;7.4262586;;;;;;;
44530;SPS30;30240;47.418;0.700;2023-10-13T09:24:04;7.5980463;;7.5691776;;;;;;;
44530;SPS30;30240;47.418;0.700;2023-10-13T09:26:33;8.039645;;8.039645;;;;;;;
44530;SPS30;30240;47.418;0.700;2023-10-13T09:28:53;7.411341;;7.340981;;;;;;;
44530;SPS30;30240;47.418;0.700;2023-10-13T09:31:21;7.575175;;7.5413785;;;;;;;
44530;SPS30;30240;47.418;0.700;2023-10-13T09:33:44;7.575175;;7.5413785;;;;;;;
44530;SPS30;30240;47.418;0.700;2023-10-13T09:36:08;7.2911043;;7.291078;;;;;;;
44530;SPS30;30240;47.418;0.700;2023-10-13T09:38:34;7.645485;;7.6454782;;;;;;;
44530;SPS30;30240;47.418;0.700;2023-10-13T09:40:59;7.735904;;7.662575;;;;;;;
44530;SPS30;30240;47.418;0.700;2023-10-13T09:43:23;7.239185;;7.239185;;;;;;;
44530;SPS30;30240;47.418;0.700;2023-10-13T09:45:49;7.239185;;7.239185;;;;;;;
44530;SPS30;30240;47.418;0.700;2023-10-13T09:48:13;7.46901;;7.4480863;;;;;;;
44530;SPS30;30240;47.418;0.700;2023-10-13T09:50:38;5.9413867;;5.9203053;;;;;;;
44530;SPS30;30240;47.418;0.700;2023-10-13T09:53:04;5.5619216;;5.5619216;;;;;;;
44530;SPS30;30240;47.418;0.700;2023-10-13T09:55:30;5.869469;;5.8481755;;;;;;;
44530;SPS30;30240;47.418;0.700;2023-10-13T09:57:56;5.869469;;5.8481755;;;;;;;
44530;SPS30;30240;47.418;0.700;2023-10-13T10:00:19;6.098132;;6.098132;;;;;;;
44530;SPS30;30240;47.418;0.700;2023-10-13T10:02:44;6.5157003;;6.5157003;;;;;;;
44530;SPS30;30240;47.418;0.700;2023-10-13T10:05:08;6.630331;;6.630331;;;;;;;
44530;SPS30;30240;47.418;0.700;2023-10-13T10:07:34;6.0872703;;6.0139;;;;;;;
44530;SPS30;30240;47.418;0.700;2023-10-13T10:09:59;6.0872703;;6.0139;;;;;;;
44530;SPS30;30240;47.418;0.700;2023-10-13T10:12:27;6.594423;;6.582587;;;;;;;
44530;SPS30;30240;47.418;0.700;2023-10-13T10:15:06;5.9809284;;5.9809284;;;;;;;
44530;SPS30;30240;47.418;0.700;2023-10-13T10:15:06;5.9809284;;5.9809284;;;;;;;
44530;SPS30;30240;47.418;0.700;2023-10-13T10:15:07;5.9809284;;5.9809284;;;;;;;
44530;SPS30;30240;47.418;0.700;2023-10-13T10:17:13;6.9005017;;6.9005017;;;;;;;
44530;SPS30;30240;47.418;0.700;2023-10-13T10:19:46;6.9440455;;6.9310064;;;;;;;
44530;SPS30;30240;47.418;0.700;2023-10-13T10:22:04;6.9440455;;6.9310064;;;;;;;
44530;SPS30;30240;47.418;0.700;2023-10-13T10:24:29;6.3048387;;6.3048387;;;;;;;
44530;SPS30;30240;47.418;0.700;2023-10-13T10:26:53;6.319058;;6.3044233;;;;;;;
44530;SPS30;30240;47.418;0.700;2023-10-13T10:29:19;7.6440907;;7.6439986;;;;;;;
44530;SPS30;30240;47.418;0.700;2023-10-13T10:31:43;7.0909233;;7.0410595;;;;;;;
44530;SPS30;30240;47.418;0.700;2023-10-13T10:34:12;7.0909233;;7.0410595;;;;;;;
44530;SPS30;30240;47.418;0.700;2023-10-13T10:36:33;6.8404036;;6.8232756;;;;;;;
44530;SPS30;30240;47.418;0.700;2023-10-13T10:38:58;7.23332;;7.1533036;;;;;;;
44530;SPS30;30240;47.418;0.700;2023-10-13T10:41:25;5.748654;;5.7451677;;;;;;;
44530;SPS30;30240;47.418;0.700;2023-10-13T10:43:48;7.5275517;;7.5113354;;;;;;;
44530;SPS30;30240;47.418;0.700;2023-10-13T10:46:14;7.5275517;;7.5113354;;;;;;;
44530;SPS30;30240;47.418;0.700;2023-10-13T10:48:39;7.060139;;7.059647;;;;;;;
44530;SPS30;30240;47.418;0.700;2023-10-13T10:51:03;7.477834;;7.454176;;;;;;;
44530;SPS30;30240;47.418;0.700;2023-10-13T10:53:28;6.1816583;;6.1816583;;;;;;;
44530;SPS30;30240;47.418;0.700;2023-10-13T10:55:54;7.0872407;;7.043766;;;;;;;
44530;SPS30;30240;47.418;0.700;2023-10-13T10:56:07;7.0872407;;7.043766;;;;;;;
44530;SPS30;30240;47.418;0.700;2023-10-13T10:58:19;6.830037;;6.825134;;;;;;;
44530;SPS30;30240;47.418;0.700;2023-10-13T11:00:43;6.830037;;6.825134;;;;;;;
44530;SPS30;30240;47.418;0.700;2023-10-13T11:03:08;6.1077766;;6.1077547;;;;;;;
44530;SPS30;30240;47.418;0.700;2023-10-13T11:05:43;6.3949037;;6.3949037;;;;;;;
44530;SPS30;30240;47.418;0.700;2023-10-13T11:07:58;6.639082;;6.608054;;;;;;;
44530;SPS30;30240;47.418;0.700;2023-10-13T11:10:23;6.2942233;;6.2942233;;;;;;;
44530;SPS30;30240;47.418;0.700;2023-10-13T11:12:56;6.2942233;;6.2942233;;;;;;;
44530;SPS30;30240;47.418;0.700;2023-10-13T11:15:14;6.6480923;;6.6480923;;;;;;;
44530;SPS30;30240;47.418;0.700;2023-10-13T11:17:39;6.008624;;6.008624;;;;;;;
44530;SPS30;30240;47.418;0.700;2023-10-13T11:20:07;6.9343753;;6.9343753;;;;;;;
44530;SPS30;30240;47.418;0.700;2023-10-13T11:22:28;5.717636;;5.717636;;;;;;;
44530;SPS30;30240;47.418;0.700;2023-10-13T11:24:54;5.717636;;5.717636;;;;;;;
44530;SPS30;30240;47.418;0.700;2023-10-13T11:27:18;6.5200377;;6.5200377;;;;;;;
44530;SPS30;30240;47.418;0.700;2023-10-13T11:29:43;6.1117845;;6.1113214;;;;;;;
44530;SPS30;30240;47.418;0.700;2023-10-13T11:32:09;6.0120606;;6.0120606;;;;;;;
44530;SPS30;30240;47.418;0.700;2023-10-13T11:34:33;6.1699543;;6.168783;;;;;;;
44530;SPS30;30240;47.418;0.700;2023-10-13T11:36:58;6.1699543;;6.168783;;;;;;;
44530;SPS30;30240;47.418;0.700;2023-10-13T11:39:23;5.835677;;5.835677;;;;;;;
44530;SPS30;30240;47.418;0.700;2023-10-13T11:41:48;6.2478147;;6.2285867;;;;;;;
44530;SPS30;30240;47.418;0.700;2023-10-13T11:44:14;7.2341475;;7.1938496;;;;;;;
44530;SPS30;30240;47.418;0.700;2023-10-13T11:46:38;5.2664876;;5.2262354;;;;;;;
44530;SPS30;30240;47.418;0.700;2023-10-13T11:49:04;5.2664876;;5.2262354;;;;;;;
44530;SPS30;30240;47.418;0.700;2023-10-13T11:51:28;5.216609;;5.216598;;;;;;;
44530;SPS30;30240;47.418;0.700;2023-10-13T11:53:53;5.414733;;5.414733;;;;;;;
44530;SPS30;30240;47.418;0.700;2023-10-13T11:56:19;6.185626;;6.185626;;;;;;;
44530;SPS30;30240;47.418;0.700;2023-10-13T11:58:43;5.3973165;;5.3973165;;;;;;;
44530;SPS30;30240;47.418;0.700;2023-10-13T12:01:08;5.3973165;;5.3973165;;;;;;;
44530;SPS30;30240;47.418;0.700;2023-10-13T12:03:34;5.1918597;;5.1901;;;;;;;
44530;SPS30;30240;47.418;0.700;2023-10-13T12:05:59;5.4430223;;5.4406857;;;;;;;
44530;SPS30;30240;47.418;0.700;2023-10-13T12:08:23;5.4159765;;5.3872457;;;;;;;
44530;SPS30;30240;47.418;0.700;2023-10-13T12:10:48;5.442589;;5.442589;;;;;;;
44530;SPS30;30240;47.418;0.700;2023-10-13T12:13:13;5.442589;;5.442589;;;;;;;